sensor_id;sensor_type;location;lat;lon;timestamp;temperature;humidity
16827;DHT22;8530;49.540;8.576;2022-11-12T00:00:08;8.20;99.90
16827;DHT22;8530;49.540;8.576;2022-11-12T00:02:34;8.20;99.90
16827;DHT22;8530;49.540;8.576;2022-11-12T00:05:03;8.20;99.90
16827;DHT22;8530;49.540;8.576;2022-11-12T00:07:30;8.20;99.90
16827;DHT22;8530;49.540;8.576;2022-11-12T00:09:56;8.20;99.90
16827;DHT22;8530;49.540;8.576;2022-11-12T00:12:23;8.20;99.90
16827;DHT22;8530;49.540;8.576;2022-11-12T00:14:50;8.20;99.90
16827;DHT22;8530;49.540;8.576;2022-11-12T00:17:18;8.10;99.90
16827;DHT22;8530;49.540;8.576;2022-11-12T00:19:46;8.20;99.90
16827;DHT22;8530;49.540;8.576;2022-11-12T00:22:14;8.10;99.90
16827;DHT22;8530;49.540;8.576;2022-11-12T00:24:41;8.10;99.90
16827;DHT22;8530;49.540;8.576;2022-11-12T00:27:08;8.10;99.90
16827;DHT22;8530;49.540;8.576;2022-11-12T00:29:35;8.10;99.90
16827;DHT22;8530;49.540;8.576;2022-11-12T00:32:03;8.10;99.90
16827;DHT22;8530;49.540;8.576;2022-11-12T00:34:30;8.00;99.90
16827;DHT22;8530;49.540;8.576;2022-11-12T00:36:57;8.00;99.90
16827;DHT22;8530;49.540;8.576;2022-11-12T00:39:25;8.00;99.90
16827;DHT22;8530;49.540;8.576;2022-11-12T00:41:52;8.00;99.90
16827;DHT22;8530;49.540;8.576;2022-11-12T00:44:19;8.00;99.90
16827;DHT22;8530;49.540;8.576;2022-11-12T00:46:46;8.00;99.90
16827;DHT22;8530;49.540;8.576;2022-11-12T00:49:13;8.00;99.90
16827;DHT22;8530;49.540;8.576;2022-11-12T00:51:41;8.00;99.90
16827;DHT22;8530;49.540;8.576;2022-11-12T00:54:08;8.00;99.90
16827;DHT22;8530;49.540;8.576;2022-11-12T00:56:36;8.00;99.90
16827;DHT22;8530;49.540;8.576;2022-11-12T00:59:03;8.00;99.90
16827;DHT22;8530;49.540;8.576;2022-11-12T01:01:30;8.00;99.90
16827;DHT22;8530;49.540;8.576;2022-11-12T01:03:58;8.00;99.90
16827;DHT22;8530;49.540;8.576;2022-11-12T01:06:25;8.10;99.90
16827;DHT22;8530;49.540;8.576;2022-11-12T01:08:53;8.10;99.90
16827;DHT22;8530;49.540;8.576;2022-11-12T01:11:22;8.10;99.90
16827;DHT22;8530;49.540;8.576;2022-11-12T01:13:54;8.10;99.90
16827;DHT22;8530;49.540;8.576;2022-11-12T01:16:24;8.10;99.90
16827;DHT22;8530;49.540;8.576;2022-11-12T01:18:54;8.10;99.90
16827;DHT22;8530;49.540;8.576;2022-11-12T01:21:22;8.10;99.90
16827;DHT22;8530;49.540;8.576;2022-11-12T01:23:49;8.20;99.90
16827;DHT22;8530;49.540;8.576;2022-11-12T01:26:19;8.20;99.90
16827;DHT22;8530;49.540;8.576;2022-11-12T01:28:46;8.20;99.90
16827;DHT22;8530;49.540;8.576;2022-11-12T01:31:16;8.20;99.90
16827;DHT22;8530;49.540;8.576;2022-11-12T01:33:45;8.10;99.90
16827;DHT22;8530;49.540;8.576;2022-11-12T01:36:14;8.10;99.90
16827;DHT22;8530;49.540;8.576;2022-11-12T01:38:42;8.10;99.90
16827;DHT22;8530;49.540;8.576;2022-11-12T01:41:11;8.10;99.90
16827;DHT22;8530;49.540;8.576;2022-11-12T01:43:38;8.10;99.90
16827;DHT22;8530;49.540;8.576;2022-11-12T01:46:12;8.10;99.90
16827;DHT22;8530;49.540;8.576;2022-11-12T01:48:46;8.10;99.90
16827;DHT22;8530;49.540;8.576;2022-11-12T01:51:15;8.10;99.90
16827;DHT22;8530;49.540;8.576;2022-11-12T01:53:44;8.10;99.90
16827;DHT22;8530;49.540;8.576;2022-11-12T01:56:13;8.10;99.90
16827;DHT22;8530;49.540;8.576;2022-11-12T01:58:41;8.00;99.90
16827;DHT22;8530;49.540;8.576;2022-11-12T02:01:09;8.00;99.90
16827;DHT22;8530;49.540;8.576;2022-11-12T02:03:35;8.00;99.90
16827;DHT22;8530;49.540;8.576;2022-11-12T02:06:06;8.00;99.90
16827;DHT22;8530;49.540;8.576;2022-11-12T02:08:34;8.00;99.90
16827;DHT22;8530;49.540;8.576;2022-11-12T02:11:10;8.00;99.90
16827;DHT22;8530;49.540;8.576;2022-11-12T02:13:37;8.00;99.90
16827;DHT22;8530;49.540;8.576;2022-11-12T02:16:22;8.00;99.90
16827;DHT22;8530;49.540;8.576;2022-11-12T02:18:49;7.90;99.90
16827;DHT22;8530;49.540;8.576;2022-11-12T02:21:20;7.90;99.90
16827;DHT22;8530;49.540;8.576;2022-11-12T02:23:56;7.90;99.90
16827;DHT22;8530;49.540;8.576;2022-11-12T02:26:24;7.90;99.90
16827;DHT22;8530;49.540;8.576;2022-11-12T02:28:51;7.90;99.90
16827;DHT22;8530;49.540;8.576;2022-11-12T02:31:18;7.90;99.90
16827;DHT22;8530;49.540;8.576;2022-11-12T02:33:45;7.90;99.90
16827;DHT22;8530;49.540;8.576;2022-11-12T02:36:12;7.90;99.90
16827;DHT22;8530;49.540;8.576;2022-11-12T02:38:40;7.90;99.90
16827;DHT22;8530;49.540;8.576;2022-11-12T02:41:06;7.80;99.90
16827;DHT22;8530;49.540;8.576;2022-11-12T02:43:33;7.80;99.90
16827;DHT22;8530;49.540;8.576;2022-11-12T02:46:01;7.70;99.90
16827;DHT22;8530;49.540;8.576;2022-11-12T02:48:27;7.70;99.90
16827;DHT22;8530;49.540;8.576;2022-11-12T02:50:54;7.70;99.90
16827;DHT22;8530;49.540;8.576;2022-11-12T02:53:21;7.70;99.90
16827;DHT22;8530;49.540;8.576;2022-11-12T02:55:49;7.60;99.90
16827;DHT22;8530;49.540;8.576;2022-11-12T02:58:16;7.60;99.90
16827;DHT22;8530;49.540;8.576;2022-11-12T03:00:43;7.60;99.90
16827;DHT22;8530;49.540;8.576;2022-11-12T03:03:10;7.60;99.90
16827;DHT22;8530;49.540;8.576;2022-11-12T03:05:37;7.50;99.90
16827;DHT22;8530;49.540;8.576;2022-11-12T03:08:06;7.50;99.90
16827;DHT22;8530;49.540;8.576;2022-11-12T03:10:36;7.50;99.90
16827;DHT22;8530;49.540;8.576;2022-11-12T03:13:05;7.50;99.90
16827;DHT22;8530;49.540;8.576;2022-11-12T03:15:32;7.50;99.90
16827;DHT22;8530;49.540;8.576;2022-11-12T03:17:59;7.50;99.90
16827;DHT22;8530;49.540;8.576;2022-11-12T03:20:26;7.50;99.90
16827;DHT22;8530;49.540;8.576;2022-11-12T03:22:55;7.50;99.90
16827;DHT22;8530;49.540;8.576;2022-11-12T03:25:22;7.50;99.90
16827;DHT22;8530;49.540;8.576;2022-11-12T03:27:55;7.50;99.90
16827;DHT22;8530;49.540;8.576;2022-11-12T03:30:24;7.50;99.90
16827;DHT22;8530;49.540;8.576;2022-11-12T03:32:51;7.50;99.90
16827;DHT22;8530;49.540;8.576;2022-11-12T03:35:18;7.50;99.90
16827;DHT22;8530;49.540;8.576;2022-11-12T03:37:44;7.50;99.90
16827;DHT22;8530;49.540;8.576;2022-11-12T03:40:11;7.50;99.90
16827;DHT22;8530;49.540;8.576;2022-11-12T03:42:43;7.50;99.90
16827;DHT22;8530;49.540;8.576;2022-11-12T03:45:10;7.50;99.90
16827;DHT22;8530;49.540;8.576;2022-11-12T03:47:41;7.50;99.90
16827;DHT22;8530;49.540;8.576;2022-11-12T03:50:08;7.50;99.90
16827;DHT22;8530;49.540;8.576;2022-11-12T03:52:35;7.50;99.90
16827;DHT22;8530;49.540;8.576;2022-11-12T03:55:03;7.50;99.90
16827;DHT22;8530;49.540;8.576;2022-11-12T03:57:32;7.50;99.90
16827;DHT22;8530;49.540;8.576;2022-11-12T03:59:59;7.50;99.90
16827;DHT22;8530;49.540;8.576;2022-11-12T04:02:26;7.50;99.90
16827;DHT22;8530;49.540;8.576;2022-11-12T04:04:55;7.60;99.90
16827;DHT22;8530;49.540;8.576;2022-11-12T04:07:40;7.50;99.90
16827;DHT22;8530;49.540;8.576;2022-11-12T04:10:32;7.50;99.90
16827;DHT22;8530;49.540;8.576;2022-11-12T04:13:00;7.50;99.90
16827;DHT22;8530;49.540;8.576;2022-11-12T04:15:45;7.50;99.90
16827;DHT22;8530;49.540;8.576;2022-11-12T04:18:32;7.50;99.90
16827;DHT22;8530;49.540;8.576;2022-11-12T04:21:18;7.40;99.90
16827;DHT22;8530;49.540;8.576;2022-11-12T04:24:02;7.40;99.90
16827;DHT22;8530;49.540;8.576;2022-11-12T04:26:29;7.40;99.90
16827;DHT22;8530;49.540;8.576;2022-11-12T04:28:55;7.40;99.90
16827;DHT22;8530;49.540;8.576;2022-11-12T04:31:40;7.40;99.90
16827;DHT22;8530;49.540;8.576;2022-11-12T04:34:06;7.40;99.90
16827;DHT22;8530;49.540;8.576;2022-11-12T04:36:52;7.30;99.90
16827;DHT22;8530;49.540;8.576;2022-11-12T04:39:19;7.30;99.90
16827;DHT22;8530;49.540;8.576;2022-11-12T04:41:45;7.30;99.90
16827;DHT22;8530;49.540;8.576;2022-11-12T04:44:30;7.30;99.90
16827;DHT22;8530;49.540;8.576;2022-11-12T04:47:14;7.20;99.90
16827;DHT22;8530;49.540;8.576;2022-11-12T04:49:41;7.20;99.90
16827;DHT22;8530;49.540;8.576;2022-11-12T04:52:10;7.10;99.90
16827;DHT22;8530;49.540;8.576;2022-11-12T04:54:36;7.10;99.90
16827;DHT22;8530;49.540;8.576;2022-11-12T04:57:03;7.10;99.90
16827;DHT22;8530;49.540;8.576;2022-11-12T04:59:30;7.10;99.90
16827;DHT22;8530;49.540;8.576;2022-11-12T05:01:57;7.10;99.90
16827;DHT22;8530;49.540;8.576;2022-11-12T05:04:24;7.00;99.90
16827;DHT22;8530;49.540;8.576;2022-11-12T05:06:52;7.10;99.90
16827;DHT22;8530;49.540;8.576;2022-11-12T05:09:22;7.10;99.90
16827;DHT22;8530;49.540;8.576;2022-11-12T05:11:49;7.10;99.90
16827;DHT22;8530;49.540;8.576;2022-11-12T05:14:16;7.10;99.90
16827;DHT22;8530;49.540;8.576;2022-11-12T05:16:43;7.10;99.90
16827;DHT22;8530;49.540;8.576;2022-11-12T05:19:10;7.10;99.90
16827;DHT22;8530;49.540;8.576;2022-11-12T05:21:37;7.10;99.90
16827;DHT22;8530;49.540;8.576;2022-11-12T05:24:22;7.10;99.90
16827;DHT22;8530;49.540;8.576;2022-11-12T05:26:49;7.10;99.90
16827;DHT22;8530;49.540;8.576;2022-11-12T05:29:16;7.00;99.90
16827;DHT22;8530;49.540;8.576;2022-11-12T05:31:43;7.00;99.90
16827;DHT22;8530;49.540;8.576;2022-11-12T05:34:10;7.00;99.90
16827;DHT22;8530;49.540;8.576;2022-11-12T05:36:37;7.00;99.90
16827;DHT22;8530;49.540;8.576;2022-11-12T05:39:04;7.00;99.90
16827;DHT22;8530;49.540;8.576;2022-11-12T05:41:32;7.00;99.90
16827;DHT22;8530;49.540;8.576;2022-11-12T05:43:59;7.00;99.90
16827;DHT22;8530;49.540;8.576;2022-11-12T05:46:26;7.00;99.90
16827;DHT22;8530;49.540;8.576;2022-11-12T05:48:53;7.00;99.90
16827;DHT22;8530;49.540;8.576;2022-11-12T05:51:20;7.00;99.90
16827;DHT22;8530;49.540;8.576;2022-11-12T05:53:47;6.90;99.90
16827;DHT22;8530;49.540;8.576;2022-11-12T05:56:14;6.90;99.90
16827;DHT22;8530;49.540;8.576;2022-11-12T05:58:42;6.80;99.90
16827;DHT22;8530;49.540;8.576;2022-11-12T06:01:09;6.80;99.90
16827;DHT22;8530;49.540;8.576;2022-11-12T06:03:36;6.80;99.90
16827;DHT22;8530;49.540;8.576;2022-11-12T06:06:03;6.80;99.90
16827;DHT22;8530;49.540;8.576;2022-11-12T06:08:31;6.80;99.90
16827;DHT22;8530;49.540;8.576;2022-11-12T06:10:58;6.80;99.90
16827;DHT22;8530;49.540;8.576;2022-11-12T06:13:25;6.90;99.90
16827;DHT22;8530;49.540;8.576;2022-11-12T06:15:53;6.90;99.90
16827;DHT22;8530;49.540;8.576;2022-11-12T06:18:21;6.90;99.90
16827;DHT22;8530;49.540;8.576;2022-11-12T06:20:48;6.90;99.90
16827;DHT22;8530;49.540;8.576;2022-11-12T06:23:35;6.90;99.90
16827;DHT22;8530;49.540;8.576;2022-11-12T06:26:03;6.90;99.90
16827;DHT22;8530;49.540;8.576;2022-11-12T06:28:30;6.90;99.90
16827;DHT22;8530;49.540;8.576;2022-11-12T06:30:59;6.90;99.90
16827;DHT22;8530;49.540;8.576;2022-11-12T06:33:25;6.90;99.90
16827;DHT22;8530;49.540;8.576;2022-11-12T06:35:56;6.90;99.90
16827;DHT22;8530;49.540;8.576;2022-11-12T06:38:27;6.90;99.90
16827;DHT22;8530;49.540;8.576;2022-11-12T06:40:54;6.90;99.90
16827;DHT22;8530;49.540;8.576;2022-11-12T06:43:21;6.90;99.90
16827;DHT22;8530;49.540;8.576;2022-11-12T06:45:48;6.80;99.90
16827;DHT22;8530;49.540;8.576;2022-11-12T06:48:16;6.80;99.90
16827;DHT22;8530;49.540;8.576;2022-11-12T06:50:43;6.80;99.90
16827;DHT22;8530;49.540;8.576;2022-11-12T06:53:10;6.70;99.90
16827;DHT22;8530;49.540;8.576;2022-11-12T06:55:36;6.70;99.90
16827;DHT22;8530;49.540;8.576;2022-11-12T06:58:03;6.70;99.90
16827;DHT22;8530;49.540;8.576;2022-11-12T07:00:30;6.70;99.90
16827;DHT22;8530;49.540;8.576;2022-11-12T07:02:57;6.70;99.90
16827;DHT22;8530;49.540;8.576;2022-11-12T07:05:25;6.60;99.90
16827;DHT22;8530;49.540;8.576;2022-11-12T07:07:54;6.60;99.90
16827;DHT22;8530;49.540;8.576;2022-11-12T07:10:20;6.70;99.90
16827;DHT22;8530;49.540;8.576;2022-11-12T07:12:47;6.70;99.90
16827;DHT22;8530;49.540;8.576;2022-11-12T07:15:14;6.70;99.90
16827;DHT22;8530;49.540;8.576;2022-11-12T07:17:44;6.80;99.90
16827;DHT22;8530;49.540;8.576;2022-11-12T07:20:13;6.80;99.90
16827;DHT22;8530;49.540;8.576;2022-11-12T07:22:41;6.90;99.90
16827;DHT22;8530;49.540;8.576;2022-11-12T07:25:09;6.90;99.90
16827;DHT22;8530;49.540;8.576;2022-11-12T07:27:36;7.00;99.90
16827;DHT22;8530;49.540;8.576;2022-11-12T07:30:03;7.00;99.90
16827;DHT22;8530;49.540;8.576;2022-11-12T07:32:30;7.00;99.90
16827;DHT22;8530;49.540;8.576;2022-11-12T07:34:57;7.10;99.90
16827;DHT22;8530;49.540;8.576;2022-11-12T07:37:24;7.10;99.90
16827;DHT22;8530;49.540;8.576;2022-11-12T07:39:52;7.10;99.90
16827;DHT22;8530;49.540;8.576;2022-11-12T07:42:19;7.00;99.90
16827;DHT22;8530;49.540;8.576;2022-11-12T07:44:46;7.00;99.90
16827;DHT22;8530;49.540;8.576;2022-11-12T07:47:13;7.00;99.90
16827;DHT22;8530;49.540;8.576;2022-11-12T07:49:40;7.00;99.90
16827;DHT22;8530;49.540;8.576;2022-11-12T07:52:07;7.00;99.90
16827;DHT22;8530;49.540;8.576;2022-11-12T07:54:33;7.00;99.90
16827;DHT22;8530;49.540;8.576;2022-11-12T07:57:02;7.00;99.90
16827;DHT22;8530;49.540;8.576;2022-11-12T07:59:28;7.00;99.90
16827;DHT22;8530;49.540;8.576;2022-11-12T08:01:55;7.10;99.90
16827;DHT22;8530;49.540;8.576;2022-11-12T08:04:22;7.10;99.90
16827;DHT22;8530;49.540;8.576;2022-11-12T08:06:50;7.10;99.90
16827;DHT22;8530;49.540;8.576;2022-11-12T08:09:17;7.10;99.90
16827;DHT22;8530;49.540;8.576;2022-11-12T08:11:44;7.10;99.90
16827;DHT22;8530;49.540;8.576;2022-11-12T08:14:12;7.10;99.90
16827;DHT22;8530;49.540;8.576;2022-11-12T08:16:38;7.10;99.90
16827;DHT22;8530;49.540;8.576;2022-11-12T08:19:05;7.10;99.90
16827;DHT22;8530;49.540;8.576;2022-11-12T08:21:32;7.10;99.90
16827;DHT22;8530;49.540;8.576;2022-11-12T08:24:01;7.20;99.90
16827;DHT22;8530;49.540;8.576;2022-11-12T08:26:28;7.20;99.90
16827;DHT22;8530;49.540;8.576;2022-11-12T08:28:54;7.20;99.90
16827;DHT22;8530;49.540;8.576;2022-11-12T08:31:23;7.20;99.90
16827;DHT22;8530;49.540;8.576;2022-11-12T08:33:49;7.30;99.90
16827;DHT22;8530;49.540;8.576;2022-11-12T08:36:17;7.30;99.90
16827;DHT22;8530;49.540;8.576;2022-11-12T08:38:44;7.40;99.90
16827;DHT22;8530;49.540;8.576;2022-11-12T08:41:12;7.40;99.90
16827;DHT22;8530;49.540;8.576;2022-11-12T08:43:40;7.50;99.90
16827;DHT22;8530;49.540;8.576;2022-11-12T08:46:07;7.60;99.90
16827;DHT22;8530;49.540;8.576;2022-11-12T08:48:35;7.60;99.90
16827;DHT22;8530;49.540;8.576;2022-11-12T08:51:04;7.60;99.90
16827;DHT22;8530;49.540;8.576;2022-11-12T08:53:32;7.60;99.90
16827;DHT22;8530;49.540;8.576;2022-11-12T08:55:59;7.60;99.90
16827;DHT22;8530;49.540;8.576;2022-11-12T08:58:26;7.60;99.90
16827;DHT22;8530;49.540;8.576;2022-11-12T09:00:53;7.60;99.90
16827;DHT22;8530;49.540;8.576;2022-11-12T09:03:22;7.60;99.90
16827;DHT22;8530;49.540;8.576;2022-11-12T09:05:50;7.70;99.90
16827;DHT22;8530;49.540;8.576;2022-11-12T09:08:19;7.70;99.90
16827;DHT22;8530;49.540;8.576;2022-11-12T09:10:46;7.70;99.90
16827;DHT22;8530;49.540;8.576;2022-11-12T09:13:14;7.80;99.90
16827;DHT22;8530;49.540;8.576;2022-11-12T09:15:42;7.90;99.90
16827;DHT22;8530;49.540;8.576;2022-11-12T09:18:11;7.90;99.90
16827;DHT22;8530;49.540;8.576;2022-11-12T09:20:38;7.90;99.90
16827;DHT22;8530;49.540;8.576;2022-11-12T09:23:07;8.00;99.90
16827;DHT22;8530;49.540;8.576;2022-11-12T09:25:35;8.00;99.90
16827;DHT22;8530;49.540;8.576;2022-11-12T09:28:07;8.00;99.90
16827;DHT22;8530;49.540;8.576;2022-11-12T09:30:35;8.00;99.90
16827;DHT22;8530;49.540;8.576;2022-11-12T09:33:02;8.10;99.90
16827;DHT22;8530;49.540;8.576;2022-11-12T09:35:29;8.20;99.90
16827;DHT22;8530;49.540;8.576;2022-11-12T09:37:56;8.30;99.90
16827;DHT22;8530;49.540;8.576;2022-11-12T09:40:35;8.30;99.90
16827;DHT22;8530;49.540;8.576;2022-11-12T09:43:14;8.30;99.90
16827;DHT22;8530;49.540;8.576;2022-11-12T09:45:43;8.30;99.90
16827;DHT22;8530;49.540;8.576;2022-11-12T09:48:14;8.30;99.90
16827;DHT22;8530;49.540;8.576;2022-11-12T09:50:50;8.30;99.90
16827;DHT22;8530;49.540;8.576;2022-11-12T09:53:24;8.40;99.90
16827;DHT22;8530;49.540;8.576;2022-11-12T09:55:55;8.40;99.90
16827;DHT22;8530;49.540;8.576;2022-11-12T09:58:24;8.50;99.90
16827;DHT22;8530;49.540;8.576;2022-11-12T10:00:54;8.50;99.90
16827;DHT22;8530;49.540;8.576;2022-11-12T10:03:30;8.60;99.90
16827;DHT22;8530;49.540;8.576;2022-11-12T10:06:01;8.70;99.90
16827;DHT22;8530;49.540;8.576;2022-11-12T10:08:38;8.70;99.90
16827;DHT22;8530;49.540;8.576;2022-11-12T10:11:18;8.70;99.90
16827;DHT22;8530;49.540;8.576;2022-11-12T10:13:59;8.70;99.90
16827;DHT22;8530;49.540;8.576;2022-11-12T10:16:43;8.70;99.90
16827;DHT22;8530;49.540;8.576;2022-11-12T10:19:36;8.80;99.90
16827;DHT22;8530;49.540;8.576;2022-11-12T10:22:19;8.90;99.90
16827;DHT22;8530;49.540;8.576;2022-11-12T10:24:48;8.90;99.90
16827;DHT22;8530;49.540;8.576;2022-11-12T10:27:18;8.90;99.90
16827;DHT22;8530;49.540;8.576;2022-11-12T10:29:52;8.90;99.90
16827;DHT22;8530;49.540;8.576;2022-11-12T10:32:22;8.90;99.90
16827;DHT22;8530;49.540;8.576;2022-11-12T10:34:48;9.00;99.90
16827;DHT22;8530;49.540;8.576;2022-11-12T10:37:21;9.10;99.90
16827;DHT22;8530;49.540;8.576;2022-11-12T10:39:49;9.20;99.90
16827;DHT22;8530;49.540;8.576;2022-11-12T10:42:20;9.30;99.90
16827;DHT22;8530;49.540;8.576;2022-11-12T10:44:47;9.30;99.90
16827;DHT22;8530;49.540;8.576;2022-11-12T10:47:22;9.30;99.90
16827;DHT22;8530;49.540;8.576;2022-11-12T10:50:03;9.30;99.90
16827;DHT22;8530;49.540;8.576;2022-11-12T10:52:30;9.30;99.90
16827;DHT22;8530;49.540;8.576;2022-11-12T10:55:04;9.40;99.90
16827;DHT22;8530;49.540;8.576;2022-11-12T10:57:33;9.40;99.90
16827;DHT22;8530;49.540;8.576;2022-11-12T11:00:13;9.40;99.90
16827;DHT22;8530;49.540;8.576;2022-11-12T11:02:46;9.40;99.90
16827;DHT22;8530;49.540;8.576;2022-11-12T11:05:30;9.50;99.90
16827;DHT22;8530;49.540;8.576;2022-11-12T11:07:57;9.50;99.90
16827;DHT22;8530;49.540;8.576;2022-11-12T11:10:27;9.50;99.90
16827;DHT22;8530;49.540;8.576;2022-11-12T11:13:18;9.50;99.90
16827;DHT22;8530;49.540;8.576;2022-11-12T11:15:59;9.50;99.90
16827;DHT22;8530;49.540;8.576;2022-11-12T11:18:27;9.50;99.90
16827;DHT22;8530;49.540;8.576;2022-11-12T11:21:00;9.60;99.90
16827;DHT22;8530;49.540;8.576;2022-11-12T11:23:33;9.70;99.90
16827;DHT22;8530;49.540;8.576;2022-11-12T11:26:12;9.70;99.90
16827;DHT22;8530;49.540;8.576;2022-11-12T11:28:45;9.80;99.90
16827;DHT22;8530;49.540;8.576;2022-11-12T11:31:21;9.70;99.90
16827;DHT22;8530;49.540;8.576;2022-11-12T11:33:56;9.70;99.90
16827;DHT22;8530;49.540;8.576;2022-11-12T11:36:32;9.70;99.90
16827;DHT22;8530;49.540;8.576;2022-11-12T11:39:09;9.80;99.90
16827;DHT22;8530;49.540;8.576;2022-11-12T11:41:51;9.80;99.90
16827;DHT22;8530;49.540;8.576;2022-11-12T11:44:28;9.80;99.90
16827;DHT22;8530;49.540;8.576;2022-11-12T11:47:08;9.80;99.90
16827;DHT22;8530;49.540;8.576;2022-11-12T11:50:06;9.80;99.90
16827;DHT22;8530;49.540;8.576;2022-11-12T11:52:45;9.70;99.90
16827;DHT22;8530;49.540;8.576;2022-11-12T11:55:23;9.70;99.90
16827;DHT22;8530;49.540;8.576;2022-11-12T11:57:59;9.70;99.90
16827;DHT22;8530;49.540;8.576;2022-11-12T12:00:34;9.70;99.90
16827;DHT22;8530;49.540;8.576;2022-11-12T12:03:17;9.70;99.90
16827;DHT22;8530;49.540;8.576;2022-11-12T12:05:52;9.70;99.90
16827;DHT22;8530;49.540;8.576;2022-11-12T12:08:29;9.70;99.90
16827;DHT22;8530;49.540;8.576;2022-11-12T12:11:01;9.70;99.90
16827;DHT22;8530;49.540;8.576;2022-11-12T12:13:40;9.70;99.90
16827;DHT22;8530;49.540;8.576;2022-11-12T12:16:24;9.70;99.90
16827;DHT22;8530;49.540;8.576;2022-11-12T12:18:57;9.70;99.90
16827;DHT22;8530;49.540;8.576;2022-11-12T12:21:30;9.80;99.90
16827;DHT22;8530;49.540;8.576;2022-11-12T12:24:02;9.70;99.90
16827;DHT22;8530;49.540;8.576;2022-11-12T12:26:34;9.70;99.90
16827;DHT22;8530;49.540;8.576;2022-11-12T12:29:06;9.70;99.90
16827;DHT22;8530;49.540;8.576;2022-11-12T12:31:39;9.70;99.90
16827;DHT22;8530;49.540;8.576;2022-11-12T12:34:15;9.70;99.90
16827;DHT22;8530;49.540;8.576;2022-11-12T12:36:44;9.70;99.90
16827;DHT22;8530;49.540;8.576;2022-11-12T12:39:14;9.70;99.90
16827;DHT22;8530;49.540;8.576;2022-11-12T12:41:48;9.70;99.90
16827;DHT22;8530;49.540;8.576;2022-11-12T12:44:17;9.70;99.90
16827;DHT22;8530;49.540;8.576;2022-11-12T12:46:48;9.70;99.90
16827;DHT22;8530;49.540;8.576;2022-11-12T12:49:18;9.60;99.90
16827;DHT22;8530;49.540;8.576;2022-11-12T12:51:47;9.70;99.90
16827;DHT22;8530;49.540;8.576;2022-11-12T12:57:31;9.60;99.90
16827;DHT22;8530;49.540;8.576;2022-11-12T13:00:23;9.50;99.90
16827;DHT22;8530;49.540;8.576;2022-11-12T13:02:52;9.50;99.90
16827;DHT22;8530;49.540;8.576;2022-11-12T13:05:37;9.50;99.90
16827;DHT22;8530;49.540;8.576;2022-11-12T13:08:08;9.40;99.90
16827;DHT22;8530;49.540;8.576;2022-11-12T13:10:46;9.40;99.90
16827;DHT22;8530;49.540;8.576;2022-11-12T13:13:27;9.50;99.90
16827;DHT22;8530;49.540;8.576;2022-11-12T13:15:55;9.60;99.90
16827;DHT22;8530;49.540;8.576;2022-11-12T13:18:58;9.60;99.90
16827;DHT22;8530;49.540;8.576;2022-11-12T13:21:27;9.70;99.90
16827;DHT22;8530;49.540;8.576;2022-11-12T13:23:58;9.50;99.90
16827;DHT22;8530;49.540;8.576;2022-11-12T13:26:53;9.40;99.90
16827;DHT22;8530;49.540;8.576;2022-11-12T13:29:38;9.40;99.90
16827;DHT22;8530;49.540;8.576;2022-11-12T13:35:29;9.40;99.90
16827;DHT22;8530;49.540;8.576;2022-11-12T13:38:01;9.40;99.90
16827;DHT22;8530;49.540;8.576;2022-11-12T13:40:45;9.40;99.90
16827;DHT22;8530;49.540;8.576;2022-11-12T13:43:21;9.30;99.90
16827;DHT22;8530;49.540;8.576;2022-11-12T13:45:53;9.20;99.90
16827;DHT22;8530;49.540;8.576;2022-11-12T13:48:24;9.20;99.90
16827;DHT22;8530;49.540;8.576;2022-11-12T13:50:55;9.20;99.90
16827;DHT22;8530;49.540;8.576;2022-11-12T13:53:25;9.20;99.90
16827;DHT22;8530;49.540;8.576;2022-11-12T13:55:53;9.20;99.90
16827;DHT22;8530;49.540;8.576;2022-11-12T13:58:29;9.20;99.90
16827;DHT22;8530;49.540;8.576;2022-11-12T14:01:06;9.20;99.90
16827;DHT22;8530;49.540;8.576;2022-11-12T14:03:41;9.20;99.90
16827;DHT22;8530;49.540;8.576;2022-11-12T14:06:19;9.20;99.90
16827;DHT22;8530;49.540;8.576;2022-11-12T14:12:17;9.20;99.90
16827;DHT22;8530;49.540;8.576;2022-11-12T14:15:02;9.30;99.90
16827;DHT22;8530;49.540;8.576;2022-11-12T14:17:45;9.30;99.90
16827;DHT22;8530;49.540;8.576;2022-11-12T14:20:24;9.30;99.90
16827;DHT22;8530;49.540;8.576;2022-11-12T14:22:55;9.20;99.90
16827;DHT22;8530;49.540;8.576;2022-11-12T14:25:24;9.30;99.90
16827;DHT22;8530;49.540;8.576;2022-11-12T14:27:52;9.20;99.90
16827;DHT22;8530;49.540;8.576;2022-11-12T14:30:21;9.20;99.90
16827;DHT22;8530;49.540;8.576;2022-11-12T14:32:50;9.20;99.90
16827;DHT22;8530;49.540;8.576;2022-11-12T14:35:33;9.30;99.90
16827;DHT22;8530;49.540;8.576;2022-11-12T14:38:11;9.20;99.90
16827;DHT22;8530;49.540;8.576;2022-11-12T14:40:43;9.10;99.90
16827;DHT22;8530;49.540;8.576;2022-11-12T14:43:19;9.10;99.90
16827;DHT22;8530;49.540;8.576;2022-11-12T14:45:51;9.10;99.90
16827;DHT22;8530;49.540;8.576;2022-11-12T14:48:20;9.00;99.90
16827;DHT22;8530;49.540;8.576;2022-11-12T14:50:55;9.00;99.90
16827;DHT22;8530;49.540;8.576;2022-11-12T14:53:27;9.00;99.90
16827;DHT22;8530;49.540;8.576;2022-11-12T14:55:55;8.90;99.90
16827;DHT22;8530;49.540;8.576;2022-11-12T14:58:24;8.80;99.90
16827;DHT22;8530;49.540;8.576;2022-11-12T15:00:53;8.80;99.90
16827;DHT22;8530;49.540;8.576;2022-11-12T15:03:23;8.70;99.90
16827;DHT22;8530;49.540;8.576;2022-11-12T15:06:06;8.70;99.90
16827;DHT22;8530;49.540;8.576;2022-11-12T15:08:36;8.70;99.90
16827;DHT22;8530;49.540;8.576;2022-11-12T15:11:18;8.60;99.90
16827;DHT22;8530;49.540;8.576;2022-11-12T15:13:54;8.60;99.90
16827;DHT22;8530;49.540;8.576;2022-11-12T15:16:27;8.50;99.90
16827;DHT22;8530;49.540;8.576;2022-11-12T15:19:15;8.40;99.90
16827;DHT22;8530;49.540;8.576;2022-11-12T15:21:47;8.40;99.90
16827;DHT22;8530;49.540;8.576;2022-11-12T15:24:24;8.40;99.90
16827;DHT22;8530;49.540;8.576;2022-11-12T15:26:55;8.30;99.90
16827;DHT22;8530;49.540;8.576;2022-11-12T15:29:28;8.30;99.90
16827;DHT22;8530;49.540;8.576;2022-11-12T15:31:58;8.20;99.90
16827;DHT22;8530;49.540;8.576;2022-11-12T15:34:28;8.20;99.90
16827;DHT22;8530;49.540;8.576;2022-11-12T15:36:56;8.20;99.90
16827;DHT22;8530;49.540;8.576;2022-11-12T15:39:25;8.20;99.90
16827;DHT22;8530;49.540;8.576;2022-11-12T15:41:57;8.20;99.90
16827;DHT22;8530;49.540;8.576;2022-11-12T15:44:24;8.20;99.90
16827;DHT22;8530;49.540;8.576;2022-11-12T15:46:52;8.10;99.90
16827;DHT22;8530;49.540;8.576;2022-11-12T15:49:18;8.10;99.90
16827;DHT22;8530;49.540;8.576;2022-11-12T15:51:45;8.10;99.90
16827;DHT22;8530;49.540;8.576;2022-11-12T15:54:12;8.10;99.90
16827;DHT22;8530;49.540;8.576;2022-11-12T15:56:40;8.10;99.90
16827;DHT22;8530;49.540;8.576;2022-11-12T15:59:09;8.00;99.90
16827;DHT22;8530;49.540;8.576;2022-11-12T16:01:37;8.00;99.90
16827;DHT22;8530;49.540;8.576;2022-11-12T16:04:22;8.00;99.90
16827;DHT22;8530;49.540;8.576;2022-11-12T16:06:49;7.90;99.90
16827;DHT22;8530;49.540;8.576;2022-11-12T16:09:16;7.90;99.90
16827;DHT22;8530;49.540;8.576;2022-11-12T16:11:51;7.80;99.90
16827;DHT22;8530;49.540;8.576;2022-11-12T16:14:22;7.80;99.90
16827;DHT22;8530;49.540;8.576;2022-11-12T16:16:49;7.80;99.90
16827;DHT22;8530;49.540;8.576;2022-11-12T16:19:15;7.70;99.90
16827;DHT22;8530;49.540;8.576;2022-11-12T16:21:43;7.70;99.90
16827;DHT22;8530;49.540;8.576;2022-11-12T16:24:09;7.70;99.90
16827;DHT22;8530;49.540;8.576;2022-11-12T16:26:37;7.80;99.90
16827;DHT22;8530;49.540;8.576;2022-11-12T16:29:11;7.80;99.90
16827;DHT22;8530;49.540;8.576;2022-11-12T16:31:40;7.80;99.90
16827;DHT22;8530;49.540;8.576;2022-11-12T16:34:07;7.80;99.90